createdAt,value
2022-08-17T00:01:08.168Z,14.00
2022-08-17T00:08:36.927Z,15.35
2022-08-17T00:12:43.053Z,16.02
2022-08-17T00:16:57.093Z,16.03
2022-08-17T00:20:36.618Z,16.50
2022-08-17T00:24:18.742Z,15.70
2022-08-17T00:28:00.665Z,16.50
2022-08-17T00:33:13.761Z,15.63
2022-08-17T00:36:06.249Z,16.58
2022-08-17T00:39:50.186Z,17.47
2022-08-17T00:43:52.498Z,16.90
2022-08-17T00:47:34.295Z,17.42
2022-08-17T00:51:30.117Z,17.52
2022-08-17T00:55:11.943Z,16.83
2022-08-17T00:59:14.759Z,17.38
2022-08-17T01:02:59.523Z,17.02
2022-08-17T01:06:42.026Z,17.70
2022-08-17T01:10:58.443Z,18.00
2022-08-17T01:14:43.218Z,17.73
2022-08-17T01:18:26.422Z,16.33
2022-08-17T01:22:11.191Z,15.52
2022-08-17T01:25:54.893Z,16.55
2022-08-17T01:30:00.925Z,16.63
2022-08-17T01:33:42.741Z,14.70
2022-08-17T01:37:35.547Z,16.15
2022-08-17T01:41:38.318Z,17.17
2022-08-17T01:45:33.088Z,17.33
2022-08-17T01:49:17.920Z,16.83
2022-08-17T01:53:19.860Z,17.02
2022-08-17T01:57:02.176Z,17.95
2022-08-17T02:00:46.600Z,17.05
2022-08-17T02:04:41.596Z,17.88
2022-08-17T02:08:37.281Z,17.38
2022-08-17T02:12:38.187Z,18.83
2022-08-17T02:16:21.363Z,17.50
2022-08-17T02:20:04.723Z,18.77
2022-08-17T02:23:47.513Z,18.95
2022-08-17T02:27:29.513Z,17.67
2022-08-17T02:31:12.542Z,18.13
2022-08-17T02:34:54.320Z,17.15
2022-08-17T02:38:56.754Z,18.75
2022-08-17T02:42:40.870Z,17.75
2022-08-17T02:46:22.690Z,18.58
2022-08-17T02:50:26.610Z,17.25
2022-08-17T02:58:10.680Z,18.15
2022-08-17T03:01:54.749Z,19.17
2022-08-17T03:05:37.255Z,19.00
2022-08-17T03:09:37.891Z,16.92
2022-08-17T03:13:20.117Z,19.23
2022-08-17T03:17:01.915Z,20.38
2022-08-17T03:21:41.510Z,20.65
2022-08-17T03:25:25.687Z,19.20
2022-08-17T03:29:08.740Z,19.70
2022-08-17T03:32:51.735Z,19.38
2022-08-17T03:36:36.133Z,19.27
2022-08-17T03:40:18.447Z,20.50
2022-08-17T03:44:20.183Z,19.30
2022-08-17T03:48:20.781Z,19.60
2022-08-17T03:52:20.970Z,19.95
2022-08-17T03:56:22.006Z,21.67
2022-08-17T04:00:22.910Z,18.70
2022-08-17T04:04:05.095Z,20.20
2022-08-17T04:07:46.917Z,19.65
2022-08-17T04:11:30.002Z,19.42
2022-08-17T04:15:12.693Z,21.02
2022-08-17T04:18:54.712Z,20.87
2022-08-17T04:22:36.623Z,20.48
2022-08-17T04:26:52.957Z,21.80
2022-08-17T04:30:43.209Z,21.70
2022-08-17T04:34:25.132Z,20.67
2022-08-17T04:38:07.771Z,21.58
2022-08-17T04:42:06.845Z,22.67
2022-08-17T04:45:55.067Z,23.83
2022-08-17T04:50:01.670Z,22.48
2022-08-17T04:53:45.223Z,22.42
2022-08-17T05:01:13.003Z,22.60
2022-08-17T05:04:54.856Z,22.05
2022-08-17T05:09:17.510Z,23.38
2022-08-17T05:13:00.367Z,24.52
2022-08-17T05:16:42.158Z,24.52
2022-08-17T05:20:42.852Z,24.02
2022-08-17T05:24:38.609Z,24.05
2022-08-17T05:28:27.610Z,23.58
2022-08-17T05:32:47.896Z,22.10
2022-08-17T05:36:37.456Z,23.48
2022-08-17T05:40:16.983Z,24.38
2022-08-17T05:43:58.863Z,23.07
2022-08-17T05:47:40.811Z,23.63
2022-08-17T05:56:43.378Z,24.88
2022-08-17T06:01:09.429Z,24.27
2022-08-17T06:04:59.633Z,25.20
2022-08-17T06:08:44.445Z,24.42
2022-08-17T06:12:34.485Z,23.80
2022-08-17T06:16:32.842Z,24.08
2022-08-17T06:20:16.561Z,24.52
2022-08-17T06:24:03.199Z,23.80
2022-08-17T06:27:53.554Z,24.30
2022-08-17T06:32:15.026Z,23.08
2022-08-17T06:36:18.035Z,22.42
2022-08-17T06:40:37.463Z,24.13
2022-08-17T06:45:03.629Z,22.52
2022-08-17T06:49:26.232Z,21.92
2022-08-17T06:53:34.347Z,22.80
2022-08-17T06:57:20.082Z,21.38
2022-08-17T07:01:18.251Z,21.33
2022-08-17T07:05:01.686Z,20.85
2022-08-17T07:09:02.433Z,20.95
2022-08-17T07:12:44.327Z,21.45
2022-08-17T07:16:27.452Z,20.77
2022-08-17T07:20:31.253Z,21.33
2022-08-17T07:28:12.300Z,19.77
2022-08-17T07:31:56.362Z,24.67
2022-08-17T07:35:41.429Z,21.60
2022-08-17T07:40:16.347Z,19.90
2022-08-17T07:43:58.763Z,19.65
2022-08-17T07:47:58.945Z,17.48
2022-08-17T07:51:45.811Z,16.15
2022-08-17T07:55:33.002Z,14.82
2022-08-17T07:59:33.364Z,14.57
2022-08-17T08:03:28.497Z,15.02
2022-08-17T08:07:25.290Z,14.88
2022-08-17T08:11:17.287Z,14.45
2022-08-17T08:15:10.180Z,13.60
2022-08-17T08:18:58.474Z,13.60
2022-08-17T08:22:52.586Z,12.45
2022-08-17T08:27:08.025Z,11.55
2022-08-17T08:30:52.793Z,14.38
2022-08-17T08:35:01.658Z,12.63
2022-08-17T08:38:54.921Z,13.27
2022-08-17T08:42:56.711Z,13.05
2022-08-17T08:46:53.710Z,14.80
2022-08-17T08:50:43.072Z,13.75
2022-08-17T08:54:58.148Z,18.75
2022-08-17T08:59:14.020Z,14.55
2022-08-17T09:03:19.156Z,14.80
2022-08-17T09:07:38.559Z,14.32
2022-08-17T09:12:01.885Z,13.90
2022-08-17T09:15:50.234Z,15.50
2022-08-17T09:19:44.533Z,14.43
2022-08-17T09:23:33.178Z,15.02
2022-08-17T09:27:18.552Z,15.60
2022-08-17T09:31:21.731Z,14.90
2022-08-17T09:35:33.798Z,16.15
2022-08-17T09:39:42.324Z,13.95
2022-08-17T09:43:39.832Z,14.07
2022-08-17T09:47:56.287Z,14.93
2022-08-17T09:51:45.751Z,13.75
2022-08-17T09:55:52.985Z,15.50
2022-08-17T09:59:44.836Z,13.32
2022-08-17T10:03:49.147Z,14.27
2022-08-17T10:07:41.752Z,15.05
2022-08-17T10:11:50.749Z,14.87
2022-08-17T10:16:38.343Z,14.38
2022-08-17T10:21:16.885Z,13.10
2022-08-17T10:25:22.846Z,12.60
2022-08-17T10:29:17.078Z,12.82
2022-08-17T10:33:01.312Z,13.15
2022-08-17T10:36:46.278Z,12.50
2022-08-17T10:41:06.427Z,12.93
2022-08-17T10:44:56.282Z,11.85
2022-08-17T10:48:40.415Z,11.32
2022-08-17T10:52:29.883Z,10.73
2022-08-17T10:56:15.481Z,10.98
2022-08-17T11:00:00.486Z,11.30
2022-08-17T11:03:55.058Z,11.00
2022-08-17T11:07:48.899Z,11.43
2022-08-17T11:11:53.118Z,11.00
2022-08-17T11:15:54.978Z,10.60
2022-08-17T11:20:06.476Z,10.05
2022-08-17T11:24:03.340Z,10.82
2022-08-17T11:27:47.126Z,10.32
2022-08-17T11:31:41.141Z,11.27
2022-08-17T11:35:23.117Z,10.38
2022-08-17T11:39:17.131Z,9.70
2022-08-17T11:43:13.338Z,10.45
2022-08-17T11:47:38.778Z,10.60
2022-08-17T11:52:02.347Z,10.82
2022-08-17T11:55:53.210Z,8.77
2022-08-17T12:00:14.242Z,8.68
2022-08-17T12:04:25.440Z,8.40
2022-08-17T12:08:17.759Z,8.77
2022-08-17T12:12:12.339Z,9.95
2022-08-17T12:15:56.427Z,8.55
2022-08-17T12:20:15.550Z,8.05
2022-08-17T12:24:31.231Z,8.35
2022-08-17T12:28:27.073Z,8.77
2022-08-17T12:32:14.424Z,8.57
2022-08-17T12:36:03.175Z,8.95
2022-08-17T12:40:00.023Z,8.52
2022-08-17T12:43:41.863Z,8.70
2022-08-17T12:47:23.767Z,8.40
2022-08-17T12:51:07.842Z,7.90
2022-08-17T12:54:52.622Z,8.60
2022-08-17T12:58:38.110Z,7.32
2022-08-17T13:02:53.438Z,8.23
2022-08-17T13:06:35.793Z,7.18
2022-08-17T13:10:56.535Z,7.37
2022-08-17T13:14:38.327Z,7.05
2022-08-17T13:18:39.057Z,6.15
2022-08-17T13:22:23.448Z,5.85
2022-08-17T13:26:14.614Z,6.43
2022-08-17T13:30:05.678Z,6.47
2022-08-17T13:33:47.527Z,6.13
2022-08-17T13:37:34.240Z,6.32
2022-08-17T13:41:35.163Z,6.55
2022-08-17T13:45:36.280Z,5.80
2022-08-17T13:49:50.337Z,5.28
2022-08-17T13:58:06.591Z,5.38
2022-08-17T14:01:57.727Z,5.32
2022-08-17T14:05:45.054Z,5.05
2022-08-17T14:09:37.569Z,4.22
2022-08-17T14:13:19.554Z,4.70
2022-08-17T14:17:01.509Z,4.10
2022-08-17T14:20:46.729Z,2.42
2022-08-17T14:24:32.874Z,2.80
2022-08-17T14:28:20.744Z,3.05
2022-08-17T14:32:09.479Z,3.35
2022-08-17T14:35:53.533Z,2.30
2022-08-17T14:39:49.022Z,2.55
2022-08-17T14:43:55.192Z,5.20
2022-08-17T14:48:12.662Z,2.95
2022-08-17T14:51:54.554Z,2.60
2022-08-17T14:55:39.862Z,2.85
2022-08-17T14:59:23.936Z,2.65
2022-08-17T15:03:05.810Z,2.25
2022-08-17T15:06:48.490Z,2.17
2022-08-17T15:14:12.140Z,2.20
2022-08-17T15:17:53.927Z,1.93
2022-08-17T15:21:38.860Z,2.00
2022-08-17T15:25:22.175Z,2.47
2022-08-17T15:29:05.383Z,2.78
2022-08-17T15:32:54.512Z,2.10
2022-08-17T15:36:37.521Z,2.40
2022-08-17T15:40:22.640Z,2.50
2022-08-17T15:44:04.891Z,2.55
2022-08-17T15:47:49.766Z,1.98
2022-08-17T15:52:27.755Z,2.10
2022-08-17T15:56:09.731Z,2.17
2022-08-17T16:00:12.556Z,2.38
2022-08-17T16:04:04.612Z,2.50
2022-08-17T16:07:49.416Z,2.55
2022-08-17T16:11:52.174Z,2.78
2022-08-17T16:15:38.101Z,2.88
2022-08-17T16:19:39.066Z,2.88
2022-08-17T16:23:20.839Z,2.55
2022-08-17T16:27:02.857Z,2.78
2022-08-17T16:30:55.739Z,2.13
2022-08-17T16:34:37.603Z,2.17
2022-08-17T16:38:19.366Z,2.85
2022-08-17T16:42:02.772Z,2.72
2022-08-17T16:45:48.655Z,2.50
2022-08-17T16:49:37.009Z,2.40
2022-08-17T16:53:21.966Z,2.83
2022-08-17T16:57:05.322Z,2.40
2022-08-17T17:00:48.816Z,2.20
2022-08-17T17:04:30.779Z,2.20
2022-08-17T17:08:25.624Z,2.22
2022-08-17T17:12:12.232Z,2.70
2022-08-17T17:16:26.445Z,2.45
2022-08-17T17:20:17.694Z,2.60
2022-08-17T17:24:01.686Z,2.50
2022-08-17T17:28:02.603Z,2.65
2022-08-17T17:31:57.856Z,2.40
2022-08-17T17:35:57.561Z,2.78
2022-08-17T17:40:05.781Z,2.72
2022-08-17T17:43:50.046Z,2.10
2022-08-17T17:47:31.953Z,2.53
2022-08-17T17:52:06.700Z,2.50
2022-08-17T17:56:39.196Z,2.63
2022-08-17T18:00:21.872Z,2.28
2022-08-17T18:04:21.494Z,2.50
2022-08-17T18:08:36.678Z,2.33
2022-08-17T18:12:28.116Z,2.15
2022-08-17T18:16:12.431Z,2.67
2022-08-17T18:19:56.765Z,2.08
2022-08-17T18:23:43.153Z,2.20
2022-08-17T18:27:24.903Z,2.20
2022-08-17T18:31:13.283Z,2.20
2022-08-17T18:34:57.550Z,2.22
2022-08-17T18:39:36.009Z,1.90
2022-08-17T18:43:53.676Z,2.00
2022-08-17T18:47:35.791Z,2.20
2022-08-17T18:51:40.307Z,2.28
2022-08-17T18:55:28.431Z,2.35
2022-08-17T18:59:39.765Z,2.08
2022-08-17T19:03:25.755Z,2.78
2022-08-17T19:07:11.817Z,2.35
2022-08-17T19:10:58.827Z,2.17
2022-08-17T19:14:40.606Z,2.20
2022-08-17T19:19:18.789Z,2.75
2022-08-17T19:23:22.984Z,2.65
2022-08-17T19:27:15.756Z,3.00
2022-08-17T19:31:04.143Z,2.45
2022-08-17T19:34:45.907Z,2.92
2022-08-17T19:38:51.366Z,2.58
2022-08-17T19:42:47.553Z,2.35
2022-08-17T19:46:50.575Z,2.65
2022-08-17T19:51:15.832Z,3.10
2022-08-17T19:55:05.632Z,2.50
2022-08-17T19:58:58.376Z,2.60
2022-08-17T20:02:45.954Z,3.30
2022-08-17T20:06:27.919Z,2.88
2022-08-17T20:10:26.896Z,3.00
2022-08-17T20:14:14.980Z,3.20
2022-08-17T20:18:01.382Z,2.90
2022-08-17T20:22:51.758Z,3.13
2022-08-17T20:26:58.114Z,2.55
2022-08-17T20:31:30.957Z,2.30
2022-08-17T20:35:31.799Z,2.90
2022-08-17T20:39:57.274Z,2.22
2022-08-17T20:43:39.158Z,2.60
2022-08-17T20:47:27.131Z,2.70
2022-08-17T20:51:32.460Z,3.55
2022-08-17T20:55:36.450Z,3.00
2022-08-17T20:59:42.640Z,3.33
2022-08-17T21:03:47.599Z,3.25
2022-08-17T21:07:43.188Z,3.30
2022-08-17T21:11:58.263Z,2.92
2022-08-17T21:15:55.343Z,3.30
2022-08-17T21:20:13.815Z,2.92
2022-08-17T21:24:18.184Z,3.00
2022-08-17T21:28:21.816Z,2.60
2022-08-17T21:32:17.141Z,2.42
2022-08-17T21:36:10.101Z,2.92
2022-08-17T21:40:13.009Z,3.58
2022-08-17T21:44:05.352Z,3.40
2022-08-17T21:47:52.104Z,3.05
2022-08-17T21:51:55.169Z,2.72
2022-08-17T21:55:37.016Z,2.80
2022-08-17T21:59:26.089Z,3.35
2022-08-17T22:03:08.310Z,3.00
2022-08-17T22:06:56.458Z,3.13
2022-08-17T22:10:43.669Z,3.38
2022-08-17T22:14:53.190Z,3.85
2022-08-17T22:18:36.098Z,3.10
2022-08-17T22:22:26.420Z,3.33
2022-08-17T22:26:12.528Z,3.10
2022-08-17T22:29:58.791Z,2.70
2022-08-17T22:33:43.484Z,2.88
2022-08-17T22:37:28.453Z,2.63
2022-08-17T22:41:50.476Z,2.60
2022-08-17T22:45:33.775Z,2.53
2022-08-17T22:50:05.127Z,3.33
2022-08-17T22:54:21.610Z,2.60
2022-08-17T22:58:31.220Z,2.70
2022-08-17T23:02:23.734Z,2.72
2022-08-17T23:06:10.488Z,3.10
2022-08-17T23:09:52.958Z,3.17
2022-08-17T23:13:36.457Z,2.63
2022-08-17T23:21:01.233Z,2.97
2022-08-17T23:24:50.532Z,3.47
2022-08-17T23:28:37.457Z,2.92
2022-08-17T23:32:19.266Z,3.05
2022-08-17T23:36:01.228Z,3.67
2022-08-17T23:40:03.543Z,3.72
2022-08-17T23:43:46.582Z,3.92
2022-08-17T23:47:28.629Z,3.70
2022-08-17T23:51:50.485Z,4.05
2022-08-17T23:55:34.649Z,4.40
